Latest Weather Observations for Tasman Island

IDT60901

Issued at 3:55 pm EDT Monday 24 November 2014 (issued every 10 minutes, with the page automatically refreshed every 10 minutes)

About weather observations | Map of Hobart area stations | Latest observations for Hobart area | Other Formats
Station Details ID: 094155 Name: TASMAN ISLAND Lat: -43.24 Lon: 148.00 Height: 240.0 m
Data from the previous 72 hours. | See also: Recent months at Tasman Island
Date/Time
EDT
Tmp

°C
App
Tmp
°C
Dew
Point
°C
Rel
Hum
%
Delta-T

°C
Wind Press
QNH
hPa
Press
MSL
hPa
Rain
since
9 am
mm
Dir
 
Spd
km/h
Gust
km/h
Spd
kts
Gust
kts
24/03:30pm 12.2 5.9 10.9 92 0.7 N 35 43 19 23 1003.2 1003.1 0.2
24/03:00pm 12.2 3.8 9.6 84 1.3 N 44 54 24 29 1003.7 1003.7 0.2
24/02:30pm 12.3 4.7 9.1 81 1.6 N 39 46 21 25 1004.5 1004.5 0.2
24/02:00pm 12.2 5.4 9.2 82 1.5 N 35 46 19 25 1005.0 1005.0 0.2
24/01:30pm 12.0 3.9 8.7 80 1.7 N 41 54 22 29 1005.5 1005.5 0.2
24/01:00pm 11.9 4.6 8.6 80 1.7 N 37 46 20 25 1005.8 1005.7 0.2
24/12:30pm 11.4 5.6 9.5 88 1.0 N 30 43 16 23 1005.8 1005.7 0.2
24/12:00pm 12.7 7.5 9.0 78 1.9 NNW 26 46 14 25 1006.7 1006.6 0.2
24/11:31am 12.5 5.9 8.4 76 2.1 N 33 52 18 28 1007.4 1007.4 0.0
24/11:30am 12.6 5.6 8.5 76 2.1 N 35 52 19 28 1007.3 1007.3 0.0
24/11:00am 13.9 6.4 6.5 61 3.6 N 35 46 19 25 1007.7 1007.7 0.0
24/10:30am 13.6 7.9 6.9 64 3.3 N 26 37 14 20 1007.8 1007.8 0.0
24/10:00am 13.0 9.3 7.9 71 2.5 N 17 22 9 12 1008.4 1008.4 0.0
24/09:30am 13.5 10.1 5.7 59 3.7 NNE 13 24 7 13 1008.1 1008.1 0.0
24/09:00am 13.5 9.9 6.6 63 3.4 N 15 20 8 11 1008.9 1008.9 0.4
24/08:30am 14.2 12.8 7.3 63 3.4 N 4 9 2 5 1008.6 1008.6 0.4
24/08:00am 13.9 11.3 6.3 60 3.7 NW 9 15 5 8 1008.5 1008.5 0.4
24/07:30am 13.7 10.1 4.8 55 4.2 NW 13 22 7 12 1008.2 1008.2 0.4
24/07:00am 13.9 9.0 5.0 55 4.2 NW 20 33 11 18 1008.7 1008.7 0.4
24/06:30am 14.1 9.4 5.2 55 4.2 WNW 19 30 10 16 1008.7 1008.7 0.4
24/06:00am 12.8 6.9 5.9 63 3.3 NW 26 35 14 19 1008.8 1008.8 0.4
24/05:30am 11.8 8.2 9.7 87 1.1 N 19 26 10 14 1009.0 1009.0 0.4
24/05:00am 11.4 8.6 11.2 99 0.1 N 17 22 9 12 1009.3 1009.3 0.4
24/04:30am 11.8 8.7 11.6 99 0.1 N 19 26 10 14 1009.1 1009.1 0.4
24/04:00am 11.8 8.6 11.8 100 0.0 N 20 28 11 15 1009.2 1009.2 0.4
24/03:30am 12.1 7.4 12.1 100 0.0 N 28 35 15 19 1009.7 1009.7 0.4
24/03:00am 12.1 9.1 11.9 99 0.1 NNE 19 35 10 19 1009.8 1009.8 0.4
24/02:30am 12.2 8.3 12.0 99 0.1 NNE 24 32 13 17 1010.1 1010.0 0.4
24/02:00am 12.0 8.0 11.8 99 0.1 NNE 24 33 13 18 1010.4 1010.3 0.4
24/01:30am 12.0 8.0 11.7 98 0.2 NNE 24 30 13 16 1010.9 1010.9 0.4
24/01:00am 12.0 7.5 11.5 97 0.3 NNE 26 35 14 19 1011.2 1011.2 0.4
24/12:30am 12.0 8.8 11.2 95 0.4 NNE 19 32 10 17 1011.7 1011.7 0.4
24/12:00am 12.0 7.4 11.2 95 0.4 NNE 26 33 14 18 1011.9 1011.9 0.2
 
Date/Time
EDT
Tmp

°C
App
Tmp
°C
Dew
Point
°C
Rel
Hum
%
Delta-T

°C
Wind Press
QNH
hPa
Press
MSL
hPa
Rain
since
9 am
mm
Dir
 
Spd
km/h
Gust
km/h
Spd
kts
Gust
kts
23/11:30pm 11.8 7.7 11.3 97 0.3 NNE 24 32 13 17 1012.1 1012.1 0.2
23/11:00pm 11.9 8.5 11.3 96 0.3 NNE 20 28 11 15 1012.4 1012.4 0.2
23/10:30pm 12.3 8.9 10.5 89 0.9 NNE 19 32 10 17 1012.5 1012.5 0.2
23/10:00pm 12.2 8.4 11.1 93 0.6 NE 22 37 12 20 1012.2 1012.2 0.2
23/09:30pm 12.2 7.1 10.6 90 0.8 NE 28 39 15 21 1012.1 1012.1 0.2
23/09:00pm 12.1 10.6 10.5 90 0.8 NE 9 28 5 15 1011.7 1011.7 0.2
23/08:30pm 12.1 9.8 10.5 90 0.8 E 13 28 7 15 1012.0 1012.0 0.2
23/08:00pm 12.1 8.1 10.5 90 0.8 E 22 30 12 16 1011.9 1011.9 0.2
23/07:30pm 12.0 8.6 10.4 90 0.8 E 19 30 10 16 1011.6 1011.6 0.2
23/07:00pm 12.2 11.0 10.3 88 1.0 NE 7 24 4 13 1011.3 1011.3 0.2
23/06:30pm 12.6 10.3 10.3 86 1.2 E 13 24 7 13 1010.9 1010.9 0.2
23/06:00pm 13.3 12.3 10.3 82 1.6 E 6 19 3 10 1010.6 1010.5 0.2
23/05:30pm 13.1 11.1 10.3 83 1.5 ESE 11 20 6 11 1010.3 1010.2 0.2
23/05:00pm 13.1 10.6 9.7 80 1.8 ESE 13 19 7 10 1010.2 1010.1 0.2
23/04:30pm 14.5 13.4 10.7 78 2.0 ESE 7 11 4 6 1010.2 1010.1 0.2
23/04:00pm 14.4 12.8 10.2 76 2.2 SSE 9 15 5 8 1009.9 1009.9 0.2
23/03:30pm 14.4 12.0 10.2 76 2.2 SSE 13 19 7 10 1009.8 1009.8 0.2
23/03:00pm 14.8 12.4 10.2 74 2.4 S 13 20 7 11 1009.7 1009.7 0.2
23/02:30pm 15.0 12.2 10.0 72 2.6 S 15 20 8 11 1009.7 1009.7 0.2
23/02:00pm 14.5 11.3 9.9 74 2.4 S 17 22 9 12 1009.5 1009.5 0.2
23/01:30pm 15.2 12.2 10.8 75 2.4 SSW 17 24 9 13 1009.3 1009.3 0.2
23/01:00pm 15.0 11.6 10.6 75 2.4 S 19 24 10 13 1009.4 1009.4 0.2
23/12:30pm 15.2 12.6 10.8 75 2.4 S 15 22 8 12 1009.4 1009.4 0.2
23/12:00pm 15.3 13.1 10.9 75 2.4 SSW 13 28 7 15 1009.3 1009.3 0.2
23/11:30am 15.3 15.1 11.7 79 2.0 ESE 4 13 2 7 1009.1 1009.1 0.2
23/11:00am 14.6 11.3 11.0 79 1.9 SW 19 26 10 14 1008.7 1008.7 0.2
23/10:30am 14.7 12.5 10.9 78 2.0 SSW 13 22 7 12 1008.9 1008.9 0.2
23/10:00am 14.8 12.8 11.6 81 1.7 SSW 13 24 7 13 1008.6 1008.6 0.0
23/09:30am 14.3 12.8 12.0 86 1.3 SW 11 26 6 14 1008.2 1008.2 0.0
23/09:00am 13.5 10.8 11.7 89 1.0 SW 17 33 9 18 1007.6 1007.6 0.0
23/08:30am 13.1 11.1 11.5 90 0.9 WSW 13 26 7 14 1007.5 1007.5 0.0
23/08:00am 13.0 10.7 11.6 91 0.8 WSW 15 26 8 14 1007.3 1007.3 0.0
23/07:30am 12.2 8.9 11.6 96 0.3 SW 20 33 11 18 1006.5 1006.4 0.0
23/07:00am 11.9 8.7 11.3 96 0.3 SW 19 33 10 18 1006.1 1006.0 0.0
23/06:30am 11.5 8.4 11.5 100 0.0 SSW 19 35 10 19 1005.8 1005.7 0.0
23/06:00am 11.4 7.3 11.4 100 0.0 SW 24 44 13 24 1005.1 1005.1 0.0
23/05:30am 11.6 8.9 11.6 100 0.0 SSW 17 32 9 17 1004.8 1004.8 0.0
23/05:00am 11.8 9.5 11.8 100 0.0 SSW 15 28 8 15 1004.5 1004.5 0.0
23/04:30am 12.2 10.0 12.2 100 0.0 W 15 24 8 13 1004.2 1004.2 0.0
23/04:00am 12.9 11.3 11.5 91 0.8 W 11 26 6 14 1003.6 1003.5 0.0
23/03:30am 13.4 11.3 11.1 86 1.2 W 13 22 7 12 1003.5 1003.4 0.0
23/03:00am 13.2 10.9 11.6 90 0.9 W 15 26 8 14 1003.7 1003.7 0.0
23/02:30am 12.5 11.0 11.9 96 0.3 W 11 24 6 13 1003.6 1003.5 0.0
23/02:00am 14.0 11.7 10.4 79 1.9 NW 13 17 7 9 1003.5 1003.4 0.0
23/01:30am 14.5 13.3 10.3 76 2.2 N 7 13 4 7 1003.4 1003.3 0.0
23/01:00am 13.6 11.8 10.8 83 1.5 NE 11 13 6 7 1003.4 1003.3 0.0
23/12:30am 14.1 11.9 10.9 81 1.7 E 13 17 7 9 1003.8 1003.8 0.0
23/12:00am 14.0 12.6 11.0 82 1.6 E 9 15 5 8 1003.8 1003.8 0.0
 
Date/Time
EDT
Tmp

°C
App
Tmp
°C
Dew
Point
°C
Rel
Hum
%
Delta-T

°C
Wind Press
QNH
hPa
Press
MSL
hPa
Rain
since
9 am
mm
Dir
 
Spd
km/h
Gust
km/h
Spd
kts
Gust
kts
22/11:30pm 13.7 11.9 11.0 84 1.4 E 11 15 6 8 1003.8 1003.8 0.0
22/11:00pm 13.8 12.8 11.0 83 1.5 E 7 9 4 5 1004.2 1004.2 0.0
22/10:30pm 14.1 13.1 10.9 81 1.7 E 7 9 4 5 1004.3 1004.3 0.0
22/10:00pm 14.3 13.3 11.1 81 1.7 SE 7 11 4 6 1004.5 1004.5 0.0
22/09:30pm 15.0 14.0 10.4 74 2.4 SSW 6 7 3 4 1004.4 1004.4 0.0
22/09:00pm 15.1 14.0 10.7 75 2.4 SW 7 13 4 7 1004.4 1004.4 0.0
22/08:30pm 14.5 12.8 11.3 81 1.7 WSW 11 15 6 8 1004.5 1004.5 0.0
22/08:00pm 14.7 13.1 11.5 81 1.7 SW 11 13 6 7 1004.5 1004.5 0.0
22/07:30pm 15.0 13.4 11.6 80 1.9 SW 11 13 6 7 1004.2 1004.2 0.0
22/07:00pm 16.1 15.1 11.1 72 2.7 SSW 7 9 4 5 1004.0 1004.0 0.0
22/06:30pm 16.3 14.9 10.8 70 3.0 SSW 9 15 5 8 1003.9 1003.9 0.0
22/06:00pm 15.2 13.7 10.6 74 2.5 W 9 15 5 8 1004.4 1004.4 0.0
22/05:30pm 17.2 16.1 10.8 66 3.5 SW 7 11 4 6 1003.8 1003.8 0.0
22/05:00pm 17.0 16.3 9.9 63 3.8 WNW 4 7 2 4 1004.3 1004.3 0.0
22/04:30pm 15.5 12.3 10.1 70 2.9 NNE 17 28 9 15 1004.2 1004.2 0.0
22/04:00pm 17.1 13.5 9.8 62 3.9 NNE 19 32 10 17 1004.1 1004.1 0.0
22/03:30pm 18.3 14.8 10.2 59 4.4 N 19 30 10 16 1004.6 1004.6 0.0
22/03:00pm 18.7 15.0 9.5 55 4.9 N 19 28 10 15 1004.7 1004.7 0.0
22/02:30pm 16.5 13.0 8.7 60 4.0 NNW 17 20 9 11 1005.3 1005.3 0.0
22/02:00pm 15.4 8.8 7.7 60 3.9 N 32 46 17 25 1005.3 1005.3 0.0
22/01:30pm 14.0 7.8 8.0 67 3.0 N 30 44 16 24 1005.9 1005.8 0.0
22/01:00pm 15.1 8.3 7.9 62 3.7 N 33 44 18 24 1005.9 1005.8 0.0
22/12:30pm 15.9 11.0 8.6 62 3.8 N 24 35 13 19 1006.1 1006.0 0.0
22/12:00pm 13.8 7.2 7.6 66 3.1 N 32 48 17 26 1006.3 1006.2 0.0
22/11:30am 12.9 8.3 8.2 73 2.4 NNE 22 33 12 18 1006.7 1006.6 0.0
22/11:00am 14.0 7.2 5.1 55 4.2 N 30 44 16 24 1006.4 1006.3 0.0
22/10:30am 14.2 7.1 3.7 49 4.8 NNW 30 48 16 26 1006.5 1006.4 0.0
22/10:05am 13.7 6.5 3.2 49 4.8 NNW 30 50 16 27 1006.7 1006.6 0.0
22/10:00am 13.8 6.6 3.0 48 4.9 NNW 30 43 16 23 1006.8 1006.7 0.0
22/09:57am 14.0 6.5 3.2 48 4.9 NNW 32 50 17 27 1006.8 1006.7 0.0
22/09:30am 14.2 6.5 2.1 44 5.4 NW 32 48 17 26 1006.9 1006.8 0.0
22/09:00am 14.2 8.0 2.1 44 5.4 NW 24 35 13 19 1007.2 1007.1 0.2
22/08:30am 13.6 7.8 2.2 46 5.1 NNW 22 39 12 21 1007.2 1007.1 0.2
22/08:00am 13.9 8.0 1.5 43 5.4 NNW 22 35 12 19 1007.1 1007.0 0.2
22/07:30am 13.3 9.4 5.5 59 3.7 N 15 28 8 15 1007.1 1007.0 0.2
22/07:00am 13.3 8.1 3.7 52 4.4 N 20 41 11 22 1006.6 1006.5 0.2
22/06:30am 12.6 7.3 4.8 59 3.6 N 22 32 12 17 1006.5 1006.4 0.2
22/06:00am 11.5 8.7 6.8 73 2.3 NNE 11 28 6 15 1006.5 1006.4 0.2
22/05:30am 10.9 6.3 8.0 82 1.4 NNE 22 37 12 20 1006.4 1006.3 0.2
22/05:00am 10.8 4.3 8.2 84 1.3 N 32 44 17 24 1006.1 1006.0 0.2
22/04:30am 10.6 3.4 9.2 91 0.7 N 37 52 20 28 1006.2 1006.1 0.2
22/04:09am 10.5 2.2 9.4 93 0.6 N 43 61 23 33 1006.0 1005.9 0.2
22/04:00am 10.4 1.9 9.3 93 0.6 N 44 57 24 31 1006.1 1006.0 0.2
22/03:30am 10.5 1.5 8.9 90 0.8 N 46 57 25 31 1006.5 1006.4 0.2
22/03:00am 10.5 2.1 8.8 89 0.9 N 43 56 23 30 1006.9 1006.8 0.2
22/02:30am 10.4 0.9 8.3 87 1.0 N 48 61 26 33 1007.1 1007.0 0.2
22/02:00am 10.1 0.5 8.0 87 1.0 N 48 63 26 34 1007.4 1007.4 0.2
22/01:43am 10.1 1.2 7.5 84 1.3 N 44 63 24 34 1007.7 1007.7 0.2
22/01:30am 10.0 0.6 7.3 83 1.3 N 46 61 25 33 1007.8 1007.8 0.2
22/01:00am 9.7 1.4 6.1 78 1.7 N 39 50 21 27 1008.6 1008.6 0.2
22/12:30am 9.5 2.7 4.9 73 2.1 NNE 30 43 16 23 1009.0 1009.0 0.2
22/12:00am 9.2 4.2 4.8 74 2.0 NNE 20 30 11 16 1009.7 1009.7 0.2
 
Date/Time
EDT
Tmp

°C
App
Tmp
°C
Dew
Point
°C
Rel
Hum
%
Delta-T

°C
Wind Press
QNH
hPa
Press
MSL
hPa
Rain
since
9 am
mm
Dir
 
Spd
km/h
Gust
km/h
Spd
kts
Gust
kts
21/11:30pm 8.6 5.7 4.6 76 1.8 NNE 9 17 5 9 1010.2 1010.1 0.2
21/11:00pm 8.0 5.4 4.0 76 1.8 NNE 7 13 4 7 1010.3 1010.2 0.2
21/10:30pm 9.0 7.3 4.2 72 2.1 NW 2 4 1 2 1010.5 1010.4 0.2
21/10:00pm 8.3 5.7 4.3 76 1.8 S 7 13 4 7 1009.8 1009.8 0.2
21/09:30pm 8.3 5.6 3.9 74 1.9 SSW 7 11 4 6 1010.1 1010.0 0.2
21/09:00pm 8.5 5.6 4.5 76 1.8 SSW 9 13 5 7 1009.7 1009.7 0.2
21/08:30pm 9.0 6.6 4.4 73 2.1 S 6 13 3 7 1009.7 1009.7 0.2
21/08:00pm 9.2 5.1 4.4 72 2.2 SSW 15 22 8 12 1009.2 1009.2 0.2
21/07:30pm 9.8 6.1 4.2 68 2.5 SSW 13 20 7 11 1008.7 1008.7 0.2
21/07:00pm 10.1 5.7 4.7 69 2.5 SSW 17 30 9 16 1008.2 1008.2 0.2
21/06:30pm 10.7 5.0 5.0 68 2.6 SW 24 33 13 18 1007.7 1007.7 0.2
21/06:00pm 10.1 4.1 5.5 73 2.1 SW 26 41 14 22 1007.3 1007.3 0.2
21/05:30pm 10.1 4.4 5.1 71 2.3 SW 24 39 13 21 1007.1 1007.0 0.2
21/05:00pm 11.1 4.1 5.8 70 2.5 SW 32 48 17 26 1006.8 1006.7 0.2
21/04:38pm 11.0 4.7 5.5 69 2.6 SSW 28 46 15 25 1006.7 1006.6 0.2
21/04:30pm 11.0 4.2 5.3 68 2.6 SW 30 44 16 24 1006.6 1006.5 0.2
21/04:00pm 11.1 4.6 6.3 72 2.3 SW 30 46 16 25 1006.6 1006.5 0.2

Latest Capital City Observations: Canberra | Sydney | Melbourne | Brisbane | Adelaide | Perth | Hobart | Darwin

Other Formats:

Comma delimited format used in spreadsheet applications
http://www.bom.gov.au/fwo/IDT60901/IDT60901.95986.axf

JavaScript Object Notation format (JSON) in row-major order
http://www.bom.gov.au/fwo/IDT60901/IDT60901.95986.json